Time;durP1;ratioP1;P1;durP2;ratioP2;P2;SDS_P1;SDS_P2;PMS_P1;PMS_P2;Temp;Humidity;BMP_temperature;BMP_pressure;BME280_temperature;BME280_humidity;BME280_pressure;Samples;Min_cycle;Max_cycle;Signal;HPM_P1;HPM_P2
2021/12/07 00:01:50;;;;;;;;;15.67;15.33;;;;;;;;5268091;28;9784;-64
2021/12/07 00:04:21;;;;;;;;;20.33;18.00;;;;;;;;5249353;28;9417;-65
2021/12/07 00:06:52;;;;;;;;;19.00;16.67;;;;;;;;5249192;28;9642;-65
2021/12/07 00:09:23;;;;;;;;;21.25;20.50;;;;;;;;5249499;28;9739;-65
2021/12/07 00:11:56;;;;;;;;;17.50;17.50;;;;;;;;5232295;28;11446;-65
2021/12/07 00:14:33;;;;;;;;;15.25;14.75;;;;;;;;5267576;28;12214;-63
2021/12/07 00:17:05;;;;;;;;;10.00;10.00;;;;;;;;5250355;28;9813;-64
2021/12/07 00:19:38;;;;;;;;;12.33;11.33;;;;;;;;5250027;28;9638;-64
2021/12/07 00:22:10;;;;;;;;;11.33;11.33;;;;;;;;5267275;28;9443;-63
2021/12/07 00:24:41;;;;;;;;;10.67;9.33;;;;;;;;5266996;28;9535;-64
2021/12/07 00:27:12;;;;;;;;;3.67;3.67;;;;;;;;5249671;28;9410;-64
2021/12/07 00:29:43;;;;;;;;;5.33;5.33;;;;;;;;5249024;28;9328;-64
2021/12/07 00:32:27;;;;;;;;;0.00;0.00;;;;;;;;5232609;28;9328;-64
2021/12/07 00:37:53;;;;;;;;;7.00;7.00;;;;;;;;5262997;28;9337;-63
2021/12/07 00:40:43;;;;;;;;;11.33;10.67;;;;;;;;5292435;28;9313;-63
2021/12/07 00:43:15;;;;;;;;;15.67;13.33;;;;;;;;5274525;28;9469;-64
2021/12/07 00:45:46;;;;;;;;;12.67;10.33;;;;;;;;5274239;28;9397;-64
2021/12/07 00:48:36;;;;;;;;;29.00;27.25;;;;;;;;5276980;28;9794;-64
2021/12/07 00:51:08;;;;;;;;;29.25;19.50;;;;;;;;5292628;28;10042;-64
2021/12/07 00:53:39;;;;;;;;;24.00;23.50;;;;;;;;5292214;28;10205;-64
2021/12/07 00:56:11;;;;;;;;;25.00;24.00;;;;;;;;5292533;28;10375;-66
2021/12/07 00:59:01;;;;;;;;;15.67;15.00;;;;;;;;5292429;28;9747;-66
2021/12/07 01:01:34;;;;;;;;;6.00;6.00;;;;;;;;5257303;28;9428;-66
2021/12/07 01:04:05;;;;;;;;;6.67;6.67;;;;;;;;5291883;28;9240;-65
2021/12/07 01:07:01;;;;;;;;;17.67;16.33;;;;;;;;5273765;28;9252;-65
2021/12/07 01:26:19;;;;;;;;;18.75;18.50;;;;;;;;5256685;28;9679;-65
2021/12/07 01:28:51;;;;;;;;;39.50;37.25;;;;;;;;5273235;28;9691;-65
2021/12/07 01:40:27;;;;;;;;;44.00;40.25;;;;;;;;5251993;28;10816;-65
2021/12/07 01:59:57;;;;;;;;;61.75;51.00;;;;;;;;5235360;28;12242;-64
2021/12/07 02:02:29;;;;;;;;;57.00;48.25;;;;;;;;5251468;28;11450;-65
2021/12/07 02:05:00;;;;;;;;;37.50;33.25;;;;;;;;5235222;28;8792;-65
2021/12/07 02:07:34;;;;;;;;;47.25;44.50;;;;;;;;5252030;28;10529;-66
2021/12/07 02:10:11;;;;;;;;;37.25;36.25;;;;;;;;5235333;28;10344;-66
2021/12/07 02:12:47;;;;;;;;;52.75;48.00;;;;;;;;5218879;28;10262;-66
2021/12/07 02:15:20;;;;;;;;;44.25;39.75;;;;;;;;5270437;28;10582;-65
2021/12/07 02:17:52;;;;;;;;;30.00;25.25;;;;;;;;5268824;28;10294;-65
2021/12/07 02:20:25;;;;;;;;;33.75;31.00;;;;;;;;5235392;28;9894;-66
2021/12/07 02:22:57;;;;;;;;;12.50;8.75;;;;;;;;5251105;28;10178;-65
2021/12/07 02:25:32;;;;;;;;;10.50;10.50;;;;;;;;5251939;28;10332;-66
2021/12/07 02:28:06;;;;;;;;;21.00;19.75;;;;;;;;5251080;28;9875;-66
2021/12/07 02:30:55;;;;;;;;;18.50;18.50;;;;;;;;5237216;28;9877;-66
2021/12/07 02:33:29;;;;;;;;;18.33;18.33;;;;;;;;5251260;28;10534;-66
2021/12/07 02:36:00;;;;;;;;;16.67;14.67;;;;;;;;5250673;28;9626;-65
2021/12/07 02:38:32;;;;;;;;;13.67;12.67;;;;;;;;5234423;28;9335;-65
2021/12/07 02:41:03;;;;;;;;;6.67;6.67;;;;;;;;5234087;28;9659;-65
2021/12/07 02:43:35;;;;;;;;;4.00;4.00;;;;;;;;5250954;28;9389;-65
2021/12/07 02:46:06;;;;;;;;;23.00;21.75;;;;;;;;5234381;28;10108;-65
2021/12/07 02:48:38;;;;;;;;;54.00;45.50;;;;;;;;5234090;28;9874;-65
2021/12/07 02:51:11;;;;;;;;;76.25;62.00;;;;;;;;5218086;28;10599;-63
2021/12/07 02:53:43;;;;;;;;;66.00;54.75;;;;;;;;5268647;28;11408;-64
2021/12/07 02:56:14;;;;;;;;;28.00;28.00;;;;;;;;5233906;28;11404;-65
2021/12/07 02:58:47;;;;;;;;;13.67;13.00;;;;;;;;5250679;28;10488;-64
2021/12/07 03:01:26;;;;;;;;;3.00;3.00;;;;;;;;5234025;28;9813;-65
2021/12/07 03:06:46;;;;;;;;;9.67;9.00;;;;;;;;5250389;28;9621;-65
2021/12/07 03:25:51;;;;;;;;;9.67;9.67;;;;;;;;5252938;28;9429;-64
2021/12/07 03:27:04;;;;;;;;;11.50;11.50;;;;;;;;5283684;28;10151;-66
2021/12/07 03:29:54;;;;;;;;;17.50;17.50;;;;;;;;5235802;28;10098;-66
2021/12/07 03:32:43;;;;;;;;;9.75;9.75;;;;;;;;5250077;28;10244;-65
2021/12/07 03:35:33;;;;;;;;;15.00;15.00;;;;;;;;5252829;28;9928;-65
2021/12/07 03:38:06;;;;;;;;;3.00;3.00;;;;;;;;5228818;28;9824;-63
2021/12/07 03:40:38;;;;;;;;;21.25;20.00;;;;;;;;5236320;28;10017;-63
2021/12/07 03:43:29;;;;;;;;;15.33;14.33;;;;;;;;5256148;28;10001;-63
2021/12/07 03:46:00;;;;;;;;;23.50;22.50;;;;;;;;5270448;28;9634;-63
2021/12/07 03:48:33;;;;;;;;;14.00;13.50;;;;;;;;5238155;28;10077;-63
2021/12/07 03:51:05;;;;;;;;;12.00;11.75;;;;;;;;5288489;28;11115;-65
2021/12/07 03:53:38;;;;;;;;;21.50;18.50;;;;;;;;5270329;28;10877;-65
2021/12/07 03:56:28;;;;;;;;;16.25;10.00;;;;;;;;5273318;28;10163;-65
2021/12/07 03:58:59;;;;;;;;;22.25;20.50;;;;;;;;5253557;28;10130;-65
2021/12/07 04:01:30;;;;;;;;;20.00;20.00;;;;;;;;5267258;28;9949;-66
2021/12/07 04:04:03;;;;;;;;;12.33;12.00;;;;;;;;5232835;28;10104;-68
2021/12/07 04:06:53;;;;;;;;;27.50;25.25;;;;;;;;5252080;28;9712;-66
2021/12/07 04:09:25;;;;;;;;;17.00;17.00;;;;;;;;5249296;28;9896;-64
2021/12/07 04:11:56;;;;;;;;;12.33;12.33;;;;;;;;5248601;28;10578;-63
2021/12/07 04:14:45;;;;;;;;;10.33;10.33;;;;;;;;5267633;28;10188;-63
2021/12/07 04:17:18;;;;;;;;;7.33;7.33;;;;;;;;5267128;28;9343;-64
2021/12/07 04:19:50;;;;;;;;;13.67;13.33;;;;;;;;5232456;28;11507;-63
2021/12/07 04:22:21;;;;;;;;;9.33;8.00;;;;;;;;5248692;28;9523;-64
2021/12/07 04:24:52;;;;;;;;;39.25;37.75;;;;;;;;5266992;28;9452;-63
2021/12/07 04:27:24;;;;;;;;;27.00;24.50;;;;;;;;5229516;28;8796;-64
2021/12/07 04:29:55;;;;;;;;;26.50;25.25;;;;;;;;5246414;28;10069;-64
2021/12/07 04:32:44;;;;;;;;;38.25;36.00;;;;;;;;5246462;28;10198;-64
2021/12/07 04:35:16;;;;;;;;;31.00;28.00;;;;;;;;5246128;28;11212;-64
2021/12/07 04:37:48;;;;;;;;;18.50;15.75;;;;;;;;5245386;28;8854;-64
2021/12/07 04:40:21;;;;;;;;;18.50;18.25;;;;;;;;5228626;28;10713;-63
2021/12/07 04:42:52;;;;;;;;;43.50;39.00;;;;;;;;5249756;28;10201;-62
2021/12/07 05:07:37;;;;;;;;;16.50;12.00;;;;;;;;5266872;28;10316;-64
2021/12/07 05:11:00;;;;;;;;;25.50;21.50;;;;;;;;5267235;28;10069;-64
2021/12/07 05:13:50;;;;;;;;;13.25;11.25;;;;;;;;5248497;28;10041;-64
2021/12/07 05:37:45;;;;;;;;;18.25;18.25;;;;;;;;5270536;28;9997;-66
2021/12/07 05:40:35;;;;;;;;;26.50;22.00;;;;;;;;5237391;28;10005;-66
2021/12/07 05:43:06;;;;;;;;;24.50;21.50;;;;;;;;5270200;28;10149;-66
2021/12/07 05:45:39;;;;;;;;;39.50;33.00;;;;;;;;5235661;28;10108;-65
2021/12/07 05:48:10;;;;;;;;;15.75;15.75;;;;;;;;5235114;28;8796;-68
2021/12/07 05:50:42;;;;;;;;;33.25;32.00;;;;;;;;5252151;28;10042;-66
2021/12/07 05:53:13;;;;;;;;;20.50;20.50;;;;;;;;5235587;28;11528;-65
2021/12/07 05:56:03;;;;;;;;;17.25;14.00;;;;;;;;5251500;28;10120;-65
2021/12/07 05:58:34;;;;;;;;;4.00;3.50;;;;;;;;5252929;28;9785;-65
2021/12/07 06:01:05;;;;;;;;;23.25;22.25;;;;;;;;5270182;28;9955;-64
2021/12/07 06:03:36;;;;;;;;;22.75;22.00;;;;;;;;5251830;28;11435;-65
2021/12/07 06:06:07;;;;;;;;;21.00;21.00;;;;;;;;5218321;28;8772;-66
2021/12/07 06:08:38;;;;;;;;;22.00;21.00;;;;;;;;5251730;28;8865;-65
2021/12/07 06:11:10;;;;;;;;;12.75;12.75;;;;;;;;5269126;28;10485;-66
2021/12/07 06:13:41;;;;;;;;;23.25;22.75;;;;;;;;5269225;28;8792;-65
2021/12/07 06:16:31;;;;;;;;;27.50;27.00;;;;;;;;5251098;28;9971;-64
2021/12/07 06:19:02;;;;;;;;;20.50;19.75;;;;;;;;5234621;28;10032;-65
2021/12/07 06:21:33;;;;;;;;;13.25;13.25;;;;;;;;5234348;28;10062;-64
2021/12/07 06:24:05;;;;;;;;;15.25;15.25;;;;;;;;5234526;28;8771;-65
2021/12/07 06:26:36;;;;;;;;;23.75;21.50;;;;;;;;5218381;28;8775;-64
2021/12/07 06:29:07;;;;;;;;;23.75;20.50;;;;;;;;5235006;28;9868;-65
2021/12/07 06:31:38;;;;;;;;;40.25;33.25;;;;;;;;5269340;28;8790;-66
2021/12/07 06:34:10;;;;;;;;;24.50;20.50;;;;;;;;5234866;28;11018;-66
2021/12/07 06:36:41;;;;;;;;;43.25;41.00;;;;;;;;5250205;28;8821;-65
2021/12/07 06:39:12;;;;;;;;;52.50;46.75;;;;;;;;5234215;28;10792;-66
2021/12/07 06:41:43;;;;;;;;;75.00;58.50;;;;;;;;5250690;28;8822;-66
2021/12/07 06:44:14;;;;;;;;;93.75;71.75;;;;;;;;5234647;28;8798;-65
2021/12/07 06:46:48;;;;;;;;;70.50;53.25;;;;;;;;5268949;28;12201;-66
2021/12/07 06:49:20;;;;;;;;;80.25;61.75;;;;;;;;5217642;28;8786;-65
2021/12/07 06:51:51;;;;;;;;;51.50;48.50;;;;;;;;5231563;28;11446;-66
2021/12/07 06:54:22;;;;;;;;;44.00;38.00;;;;;;;;5267680;28;11497;-66
2021/12/07 07:01:17;;;;;;;;;61.25;50.50;;;;;;;;5268338;28;8714;-65
2021/12/07 07:03:48;;;;;;;;;77.50;63.50;;;;;;;;5233988;28;11711;-65
2021/12/07 07:06:19;;;;;;;;;77.50;61.50;;;;;;;;5250195;28;11546;-65
2021/12/07 07:08:50;;;;;;;;;78.50;61.50;;;;;;;;5250130;28;8854;-65
2021/12/07 07:11:22;;;;;;;;;78.25;62.75;;;;;;;;5249960;28;8786;-65
2021/12/07 07:13:54;;;;;;;;;75.50;60.25;;;;;;;;5233216;28;11473;-65
2021/12/07 07:16:26;;;;;;;;;75.25;57.50;;;;;;;;5249890;28;12296;-64
2021/12/07 07:18:57;;;;;;;;;70.25;56.25;;;;;;;;5250078;28;11453;-64
2021/12/07 07:21:29;;;;;;;;;91.75;69.25;;;;;;;;5249868;28;11412;-64
2021/12/07 07:24:00;;;;;;;;;73.50;60.25;;;;;;;;5268002;28;11558;-64
2021/12/07 07:26:32;;;;;;;;;74.50;58.75;;;;;;;;5233434;28;12147;-64
2021/12/07 07:29:04;;;;;;;;;79.25;63.25;;;;;;;;5250041;28;11458;-64
2021/12/07 07:31:40;;;;;;;;;68.25;51.75;;;;;;;;5249541;28;11426;-64
2021/12/07 07:34:30;;;;;;;;;84.50;64.50;;;;;;;;5252439;28;9590;-65
2021/12/07 07:37:00;;;;;;;;;81.00;64.50;;;;;;;;5267973;28;11444;-65
2021/12/07 07:39:32;;;;;;;;;69.25;55.75;;;;;;;;5249956;28;8791;-64
2021/12/07 07:42:03;;;;;;;;;60.50;52.00;;;;;;;;5233403;28;8817;-65
2021/12/07 07:44:53;;;;;;;;;74.50;57.00;;;;;;;;5235359;28;11446;-66
2021/12/07 07:47:24;;;;;;;;;65.25;53.00;;;;;;;;5282551;28;11239;-64
2021/12/07 07:49:55;;;;;;;;;72.75;60.50;;;;;;;;5239943;28;9670;-64
2021/12/07 07:52:25;;;;;;;;;87.25;67.50;;;;;;;;5270060;28;8783;-64
2021/12/07 07:54:57;;;;;;;;;79.25;62.00;;;;;;;;5233248;28;11466;-66
2021/12/07 07:57:29;;;;;;;;;67.00;57.00;;;;;;;;5249429;28;11431;-64
2021/12/07 08:00:00;;;;;;;;;69.00;57.25;;;;;;;;5248746;28;11194;-65
2021/12/07 08:02:49;;;;;;;;;70.00;50.25;;;;;;;;5229161;28;8878;-64
2021/12/07 08:05:20;;;;;;;;;78.00;57.75;;;;;;;;5212108;28;11307;-64
2021/12/07 08:07:51;;;;;;;;;70.00;56.75;;;;;;;;5246769;28;11302;-64
2021/12/07 08:10:28;;;;;;;;;81.50;62.00;;;;;;;;5262179;28;11505;-66
2021/12/07 08:13:00;;;;;;;;;68.00;53.50;;;;;;;;5212506;28;9690;-65
2021/12/07 08:15:31;;;;;;;;;53.25;46.75;;;;;;;;5146716;28;11177;-64
2021/12/07 08:18:03;;;;;;;;;68.25;48.25;;;;;;;;5186999;28;11239;-64
2021/12/07 08:20:36;;;;;;;;;60.00;52.50;;;;;;;;5229978;28;11517;-63
2021/12/07 08:23:26;;;;;;;;;37.50;36.00;;;;;;;;5165471;28;10975;-64
2021/12/07 08:25:56;;;;;;;;;44.50;43.25;;;;;;;;5166173;28;9910;-65
2021/12/07 08:28:27;;;;;;;;;37.75;33.75;;;;;;;;5233918;28;8784;-66
2021/12/07 08:30:58;;;;;;;;;28.67;27.33;;;;;;;;5168520;28;8803;-64
2021/12/07 08:33:30;;;;;;;;;39.75;36.75;;;;;;;;5166716;28;8795;-63
2021/12/07 08:36:01;;;;;;;;;40.25;38.25;;;;;;;;5168197;28;8808;-64
2021/12/07 08:38:32;;;;;;;;;40.50;37.50;;;;;;;;5234977;28;10083;-64
2021/12/07 08:41:03;;;;;;;;;35.33;34.33;;;;;;;;5213394;28;9997;-65
2021/12/07 08:43:35;;;;;;;;;43.00;39.75;;;;;;;;5162214;28;10312;-64
2021/12/07 08:46:07;;;;;;;;;20.25;19.00;;;;;;;;5228477;28;10173;-64
2021/12/07 08:48:57;;;;;;;;;29.00;27.75;;;;;;;;5207826;28;10178;-64
2021/12/07 08:51:28;;;;;;;;;39.25;38.00;;;;;;;;5141209;28;10181;-64
2021/12/07 08:54:19;;;;;;;;;40.25;35.00;;;;;;;;5140982;28;8787;-65
2021/12/07 08:59:48;;;;;;;;;46.25;45.75;;;;;;;;5224295;28;10100;-64
2021/12/07 09:02:21;;;;;;;;;63.75;52.50;;;;;;;;5198743;28;10615;-64
2021/12/07 09:04:56;;;;;;;;;35.50;33.50;;;;;;;;5164946;28;11864;-65
2021/12/07 09:07:27;;;;;;;;;44.25;36.50;;;;;;;;5198581;28;10535;-65
2021/12/07 09:09:58;;;;;;;;;33.25;32.75;;;;;;;;5215121;28;11269;-64
2021/12/07 09:12:29;;;;;;;;;21.00;19.25;;;;;;;;5223663;28;10048;-64
2021/12/07 09:15:00;;;;;;;;;19.67;18.33;;;;;;;;5271037;28;9450;-68
2021/12/07 09:17:32;;;;;;;;;14.67;12.00;;;;;;;;5252445;28;9624;-67
2021/12/07 09:20:05;;;;;;;;;19.33;15.33;;;;;;;;5269828;28;9262;-67
2021/12/07 09:22:37;;;;;;;;;44.00;42.50;;;;;;;;5235621;28;10282;-67
2021/12/07 09:25:08;;;;;;;;;32.50;29.00;;;;;;;;5236787;28;10233;-67
2021/12/07 09:27:39;;;;;;;;;19.00;19.00;;;;;;;;5252013;28;10043;-68
2021/12/07 09:30:35;;;;;;;;;19.00;18.33;;;;;;;;5256737;28;8770;-66
2021/12/07 09:33:06;;;;;;;;;13.67;12.67;;;;;;;;5236091;28;9582;-67
2021/12/07 09:35:37;;;;;;;;;23.67;22.67;;;;;;;;5270702;28;9433;-66
2021/12/07 09:38:09;;;;;;;;;23.00;21.67;;;;;;;;5252442;28;11044;-66
2021/12/07 09:40:41;;;;;;;;;24.33;20.00;;;;;;;;5251638;28;9510;-67
2021/12/07 09:43:12;;;;;;;;;29.00;29.00;;;;;;;;5219436;28;9355;-66
2021/12/07 09:45:44;;;;;;;;;26.33;25.33;;;;;;;;5218554;28;10041;-67
2021/12/07 09:48:15;;;;;;;;;15.67;15.67;;;;;;;;5218747;28;9539;-67
2021/12/07 09:50:47;;;;;;;;;14.67;14.33;;;;;;;;5270036;28;10044;-66
2021/12/07 09:53:18;;;;;;;;;24.00;21.33;;;;;;;;5252214;28;9746;-67
2021/12/07 09:55:50;;;;;;;;;27.33;27.33;;;;;;;;5251912;28;9261;-67
2021/12/07 09:58:21;;;;;;;;;27.00;27.00;;;;;;;;5269108;28;9641;-67
2021/12/07 10:00:52;;;;;;;;;27.75;27.25;;;;;;;;5245534;28;10368;-67
2021/12/07 10:03:42;;;;;;;;;30.33;28.67;;;;;;;;5249323;28;9931;-67
2021/12/07 10:06:32;;;;;;;;;36.75;34.25;;;;;;;;5239753;28;9539;-67
2021/12/07 10:18:02;;;;;;;;;30.00;28.00;;;;;;;;5269436;28;9213;-67
2021/12/07 10:24:59;;;;;;;;;20.67;18.00;;;;;;;;5270583;28;9125;-66
2021/12/07 10:27:31;;;;;;;;;26.33;21.00;;;;;;;;5219544;28;9031;-66
2021/12/07 10:30:17;;;;;;;;;28.33;28.33;;;;;;;;5236092;28;10091;-67
2021/12/07 10:37:12;;;;;;;;;12.00;12.00;;;;;;;;5268944;28;9606;-67
2021/12/07 10:39:55;;;;;;;;;33.00;33.00;;;;;;;;5234563;28;9240;-68
2021/12/07 10:42:27;;;;;;;;;31.00;30.50;;;;;;;;5251736;28;9745;-67
2021/12/07 10:45:02;;;;;;;;;28.33;26.33;;;;;;;;5250893;28;9803;-68
2021/12/07 10:47:34;;;;;;;;;27.67;26.33;;;;;;;;5269187;28;9324;-67
2021/12/07 10:50:09;;;;;;;;;22.67;20.67;;;;;;;;5250899;28;9342;-67
2021/12/07 10:52:42;;;;;;;;;15.33;13.67;;;;;;;;5234778;28;8774;-67
2021/12/07 10:55:15;;;;;;;;;25.33;23.00;;;;;;;;5234071;28;9196;-67
2021/12/07 10:57:50;;;;;;;;;24.00;23.33;;;;;;;;5250727;28;9405;-67
2021/12/07 11:00:24;;;;;;;;;14.33;13.00;;;;;;;;5233789;28;9274;-68
2021/12/07 11:03:03;;;;;;;;;21.00;19.00;;;;;;;;5233536;28;9162;-67
2021/12/07 11:05:34;;;;;;;;;27.67;25.67;;;;;;;;5234349;28;8929;-67
2021/12/07 11:08:06;;;;;;;;;18.67;18.67;;;;;;;;5233494;28;8980;-67
2021/12/07 11:10:39;;;;;;;;;9.00;8.33;;;;;;;;5233588;28;9708;-66
2021/12/07 11:13:17;;;;;;;;;8.67;7.67;;;;;;;;5233308;28;9211;-67
2021/12/07 11:15:52;;;;;;;;;12.33;10.67;;;;;;;;5234211;28;9872;-66
2021/12/07 11:18:45;;;;;;;;;16.00;15.00;;;;;;;;5253056;28;9260;-66
2021/12/07 11:21:17;;;;;;;;;18.33;16.67;;;;;;;;5250298;28;9243;-67
2021/12/07 11:23:53;;;;;;;;;20.33;18.67;;;;;;;;5233295;28;9334;-68
2021/12/07 11:29:57;;;;;;;;;19.33;19.33;;;;;;;;5250823;28;10152;-69
2021/12/07 11:32:28;;;;;;;;;15.33;14.00;;;;;;;;5267835;28;9309;-67
2021/12/07 11:35:07;;;;;;;;;51.50;45.50;;;;;;;;5267757;28;9679;-66
2021/12/07 11:37:39;;;;;;;;;53.25;40.75;;;;;;;;5217207;28;10049;-67
2021/12/07 11:40:10;;;;;;;;;21.33;21.33;;;;;;;;5233480;28;10093;-68
2021/12/07 11:42:42;;;;;;;;;16.00;15.00;;;;;;;;5232929;28;10253;-67
2021/12/07 11:45:16;;;;;;;;;8.33;8.00;;;;;;;;5249551;28;9344;-67
2021/12/07 11:47:48;;;;;;;;;9.67;8.33;;;;;;;;5233756;28;9323;-68
2021/12/07 11:50:19;;;;;;;;;17.33;15.67;;;;;;;;5233012;28;9323;-66
2021/12/07 11:52:52;;;;;;;;;7.00;7.00;;;;;;;;5249598;28;9550;-67
2021/12/07 11:55:44;;;;;;;;;18.67;17.67;;;;;;;;5235577;28;8790;-66
2021/12/07 11:58:15;;;;;;;;;16.00;16.00;;;;;;;;5283292;28;9269;-67
2021/12/07 12:00:49;;;;;;;;;15.00;15.00;;;;;;;;5216353;28;9405;-67
2021/12/07 12:03:22;;;;;;;;;22.00;19.00;;;;;;;;5267653;28;9215;-67
2021/12/07 12:05:54;;;;;;;;;20.33;19.00;;;;;;;;5249273;28;10013;-66
2021/12/07 12:08:25;;;;;;;;;18.67;18.67;;;;;;;;5216573;28;9465;-67
2021/12/07 12:11:15;;;;;;;;;34.25;33.00;;;;;;;;5249301;28;9650;-67
2021/12/07 12:14:09;;;;;;;;;45.50;42.50;;;;;;;;5216505;28;10770;-67
2021/12/07 12:16:51;;;;;;;;;38.50;32.75;;;;;;;;5215732;28;10285;-66
2021/12/07 12:19:48;;;;;;;;;71.25;54.75;;;;;;;;5215875;28;10148;-66
2021/12/07 12:22:19;;;;;;;;;111.25;89.25;;;;;;;;5264066;28;11485;-67
2021/12/07 12:24:55;;;;;;;;;50.50;47.50;;;;;;;;5232310;28;11559;-67
2021/12/07 12:27:32;;;;;;;;;56.00;45.50;;;;;;;;5232909;28;12162;-67
2021/12/07 12:30:23;;;;;;;;;18.00;16.50;;;;;;;;5232397;28;10736;-67
2021/12/07 12:33:00;;;;;;;;;32.67;31.33;;;;;;;;5267845;28;10967;-67
2021/12/07 12:35:41;;;;;;;;;39.50;35.50;;;;;;;;5253800;28;10262;-68
2021/12/07 12:38:24;;;;;;;;;38.00;33.25;;;;;;;;5253524;28;9980;-68
2021/12/07 12:41:00;;;;;;;;;20.25;17.25;;;;;;;;5220209;28;10648;-68
2021/12/07 12:43:53;;;;;;;;;39.50;37.75;;;;;;;;5271544;28;10021;-68
2021/12/07 12:46:31;;;;;;;;;29.00;28.33;;;;;;;;5237516;28;9941;-67
2021/12/07 12:49:10;;;;;;;;;27.75;24.50;;;;;;;;5236732;28;9554;-68
2021/12/07 12:51:46;;;;;;;;;37.00;33.75;;;;;;;;5271471;28;10155;-68
2021/12/07 12:54:19;;;;;;;;;32.50;31.00;;;;;;;;5236932;28;10130;-67
2021/12/07 12:56:50;;;;;;;;;26.50;26.50;;;;;;;;5236209;28;10034;-67
2021/12/07 12:59:22;;;;;;;;;34.67;33.00;;;;;;;;5253272;28;9803;-67
2021/12/07 13:01:56;;;;;;;;;6.00;6.00;;;;;;;;5236196;28;11555;-66
2021/12/07 13:04:30;;;;;;;;;19.67;19.33;;;;;;;;5236279;28;9559;-68
2021/12/07 13:09:41;;;;;;;;;40.00;38.50;;;;;;;;5257737;28;9866;-66
2021/12/07 13:12:23;;;;;;;;;65.50;52.75;;;;;;;;5278136;28;10510;-66
2021/12/07 13:14:56;;;;;;;;;26.33;24.33;;;;;;;;5235837;28;8792;-68
2021/12/07 13:17:27;;;;;;;;;39.25;37.00;;;;;;;;5252140;28;9715;-67
2021/12/07 13:20:17;;;;;;;;;21.75;21.75;;;;;;;;5252249;28;10670;-67
2021/12/07 13:22:53;;;;;;;;;20.67;20.00;;;;;;;;5236167;28;8879;-67
2021/12/07 13:25:27;;;;;;;;;50.50;45.50;;;;;;;;5270338;28;9710;-68
2021/12/07 13:28:16;;;;;;;;;10.33;10.33;;;;;;;;5254359;28;10357;-67
2021/12/07 13:30:53;;;;;;;;;19.33;19.33;;;;;;;;5231330;28;9541;-66
2021/12/07 13:33:50;;;;;;;;;14.00;12.33;;;;;;;;5234112;28;9579;-68
2021/12/07 13:36:27;;;;;;;;;20.33;18.00;;;;;;;;5198422;28;9714;-66
2021/12/07 13:38:59;;;;;;;;;15.00;14.00;;;;;;;;5231167;28;9618;-67
2021/12/07 13:41:30;;;;;;;;;6.33;6.33;;;;;;;;5247595;28;9409;-66
2021/12/07 13:44:01;;;;;;;;;27.33;24.67;;;;;;;;5249235;28;9118;-66
2021/12/07 13:46:32;;;;;;;;;18.67;18.67;;;;;;;;5233322;28;10450;-66
2021/12/07 13:49:08;;;;;;;;;20.67;18.33;;;;;;;;5255987;28;9663;-67
2021/12/07 13:51:40;;;;;;;;;25.00;25.00;;;;;;;;5255625;28;8784;-68
2021/12/07 13:54:15;;;;;;;;;18.00;17.33;;;;;;;;5253414;28;9655;-68
2021/12/07 13:56:47;;;;;;;;;36.00;28.00;;;;;;;;5235226;28;9696;-66
2021/12/07 13:59:21;;;;;;;;;37.50;36.25;;;;;;;;5269705;28;9787;-67
2021/12/07 14:06:15;;;;;;;;;23.75;23.75;;;;;;;;5269443;28;9811;-68
2021/12/07 14:08:47;;;;;;;;;31.50;30.00;;;;;;;;5251889;28;9805;-67
2021/12/07 14:11:19;;;;;;;;;28.00;27.00;;;;;;;;5217875;28;10587;-68
2021/12/07 14:13:50;;;;;;;;;29.75;29.00;;;;;;;;5270292;28;9713;-68
2021/12/07 14:16:24;;;;;;;;;36.50;36.50;;;;;;;;5269406;28;10575;-68
2021/12/07 14:18:57;;;;;;;;;27.50;27.50;;;;;;;;5218234;28;11507;-69
2021/12/07 14:21:28;;;;;;;;;17.00;17.00;;;;;;;;5285911;28;9903;-68
2021/12/07 14:24:08;;;;;;;;;16.67;16.67;;;;;;;;5218154;28;11596;-68
2021/12/07 14:26:39;;;;;;;;;24.00;23.33;;;;;;;;5217894;28;9319;-67
2021/12/07 14:29:12;;;;;;;;;19.00;19.00;;;;;;;;5234453;28;9328;-68
2021/12/07 14:31:46;;;;;;;;;13.00;12.00;;;;;;;;5284885;28;8802;-66
2021/12/07 14:34:17;;;;;;;;;27.00;26.33;;;;;;;;5251193;28;9629;-68
2021/12/07 14:36:53;;;;;;;;;19.33;18.67;;;;;;;;5234751;28;9811;-67
2021/12/07 14:43:49;;;;;;;;;36.00;32.00;;;;;;;;5269016;28;9717;-68
2021/12/07 14:50:44;;;;;;;;;24.67;23.67;;;;;;;;5269071;28;10366;-68
2021/12/07 14:53:15;;;;;;;;;28.67;28.33;;;;;;;;5269415;28;9174;-68
2021/12/07 14:55:47;;;;;;;;;16.67;13.00;;;;;;;;5284895;28;8774;-67
2021/12/07 14:58:37;;;;;;;;;23.67;21.33;;;;;;;;5269008;28;8783;-68
2021/12/07 15:01:31;;;;;;;;;18.67;16.67;;;;;;;;5251192;28;9041;-68
2021/12/07 15:04:04;;;;;;;;;17.33;17.33;;;;;;;;5234966;28;9301;-67
2021/12/07 15:06:36;;;;;;;;;19.67;19.67;;;;;;;;5269051;28;9404;-67
2021/12/07 15:09:08;;;;;;;;;28.33;27.00;;;;;;;;5217985;28;9211;-68
2021/12/07 15:11:40;;;;;;;;;45.67;39.00;;;;;;;;5250936;28;9485;-68
2021/12/07 15:14:13;;;;;;;;;30.00;28.00;;;;;;;;5250377;28;9641;-67
2021/12/07 15:16:47;;;;;;;;;23.67;19.00;;;;;;;;5251607;28;9366;-68
2021/12/07 15:19:20;;;;;;;;;10.00;10.00;;;;;;;;5234243;28;9406;-68
2021/12/07 15:21:52;;;;;;;;;16.33;15.33;;;;;;;;5217318;28;9002;-69
2021/12/07 15:29:07;;;;;;;;;46.67;40.67;;;;;;;;5268167;28;9712;-68
2021/12/07 15:31:59;;;;;;;;;27.67;26.67;;;;;;;;5268675;28;9669;-68
2021/12/07 15:34:32;;;;;;;;;31.00;30.33;;;;;;;;5250987;28;10222;-69
2021/12/07 15:41:26;;;;;;;;;33.00;33.00;;;;;;;;5267942;28;9529;-67
2021/12/07 15:43:57;;;;;;;;;37.00;34.67;;;;;;;;5232978;28;9559;-66
2021/12/07 15:46:28;;;;;;;;;33.67;32.33;;;;;;;;5234153;28;8782;-68
2021/12/07 15:49:00;;;;;;;;;65.75;54.00;;;;;;;;5216962;28;9643;-68
2021/12/07 15:51:31;;;;;;;;;47.00;42.50;;;;;;;;5217058;28;10386;-69
2021/12/07 15:54:02;;;;;;;;;62.25;51.25;;;;;;;;5233534;28;10334;-69
2021/12/07 15:56:33;;;;;;;;;73.00;61.50;;;;;;;;5233665;28;10266;-69
2021/12/07 15:59:23;;;;;;;;;64.50;54.00;;;;;;;;5252793;28;11598;-67
2021/12/07 16:01:55;;;;;;;;;32.33;30.67;;;;;;;;5249804;28;10305;-68
2021/12/07 16:04:28;;;;;;;;;36.33;33.00;;;;;;;;5232778;28;9505;-68
2021/12/07 16:06:59;;;;;;;;;19.67;18.33;;;;;;;;5232855;28;9659;-65
2021/12/07 16:09:36;;;;;;;;;33.67;31.00;;;;;;;;5232763;28;9205;-68
2021/12/07 16:12:11;;;;;;;;;18.00;18.00;;;;;;;;5267551;28;8988;-68
2021/12/07 16:14:43;;;;;;;;;24.33;23.67;;;;;;;;5249843;28;9664;-69
2021/12/07 16:17:18;;;;;;;;;16.25;15.50;;;;;;;;5249791;28;8864;-68
2021/12/07 16:19:49;;;;;;;;;18.75;18.50;;;;;;;;5250313;28;8770;-68
2021/12/07 16:22:39;;;;;;;;;27.00;27.00;;;;;;;;5267620;28;8825;-66
2021/12/07 16:25:30;;;;;;;;;72.25;59.00;;;;;;;;5252819;28;9060;-68
2021/12/07 16:28:01;;;;;;;;;49.50;44.50;;;;;;;;5252878;28;9895;-67
2021/12/07 16:30:32;;;;;;;;;76.75;63.25;;;;;;;;5212156;28;9963;-67
2021/12/07 16:33:04;;;;;;;;;72.75;57.50;;;;;;;;5228297;28;11585;-68
2021/12/07 16:35:54;;;;;;;;;70.50;59.00;;;;;;;;5232049;28;10069;-67
2021/12/07 16:38:25;;;;;;;;;72.25;59.25;;;;;;;;5246218;28;9998;-67
2021/12/07 16:41:00;;;;;;;;;73.75;59.25;;;;;;;;5228822;28;10381;-66
2021/12/07 16:43:31;;;;;;;;;63.50;53.25;;;;;;;;5228102;28;10557;-67
2021/12/07 16:46:03;;;;;;;;;74.75;59.50;;;;;;;;5228173;28;10082;-67
2021/12/07 16:48:35;;;;;;;;;84.00;65.75;;;;;;;;5211325;28;10137;-67
2021/12/07 16:51:06;;;;;;;;;62.00;51.75;;;;;;;;5227985;28;10789;-67
2021/12/07 16:53:39;;;;;;;;;81.75;66.50;;;;;;;;5228474;28;10528;-67
2021/12/07 16:56:10;;;;;;;;;77.50;62.75;;;;;;;;5211318;28;11004;-67
2021/12/07 16:58:44;;;;;;;;;75.00;54.50;;;;;;;;5211545;28;10525;-67
2021/12/07 17:01:16;;;;;;;;;80.00;65.25;;;;;;;;5228124;28;10504;-69
2021/12/07 17:03:48;;;;;;;;;83.50;68.75;;;;;;;;5244776;28;10808;-70
2021/12/07 17:06:20;;;;;;;;;45.00;43.00;;;;;;;;5211554;28;10561;-67
2021/12/07 17:08:51;;;;;;;;;78.67;62.33;;;;;;;;5261966;28;10222;-68
2021/12/07 17:11:22;;;;;;;;;31.67;29.67;;;;;;;;5228003;28;9740;-68
2021/12/07 17:13:54;;;;;;;;;46.67;43.00;;;;;;;;5246218;28;12143;-68
2021/12/07 17:16:29;;;;;;;;;32.25;31.25;;;;;;;;5245800;28;8808;-66
2021/12/07 17:19:02;;;;;;;;;36.00;34.00;;;;;;;;5228514;28;8809;-66
2021/12/07 17:21:33;;;;;;;;;50.33;46.67;;;;;;;;5215629;28;9568;-68
2021/12/07 17:24:04;;;;;;;;;26.00;25.25;;;;;;;;5231720;28;9137;-68
2021/12/07 17:26:36;;;;;;;;;24.00;24.00;;;;;;;;5233506;28;9516;-68
2021/12/07 17:29:07;;;;;;;;;25.75;25.75;;;;;;;;5270401;28;10218;-67
2021/12/07 17:31:38;;;;;;;;;25.00;24.33;;;;;;;;5252249;28;8850;-68
2021/12/07 17:34:10;;;;;;;;;35.75;32.75;;;;;;;;5270956;28;8782;-67
2021/12/07 17:36:41;;;;;;;;;31.50;27.50;;;;;;;;5252100;28;8773;-68
2021/12/07 17:39:15;;;;;;;;;20.00;17.00;;;;;;;;5235733;28;8818;-67
2021/12/07 17:41:47;;;;;;;;;24.50;23.00;;;;;;;;5218781;28;8874;-67
2021/12/07 17:44:18;;;;;;;;;38.25;30.75;;;;;;;;5235587;28;8890;-68
2021/12/07 17:46:49;;;;;;;;;17.33;17.33;;;;;;;;5252604;28;8794;-68
2021/12/07 17:49:20;;;;;;;;;15.67;15.67;;;;;;;;5236165;28;10276;-67
2021/12/07 17:51:52;;;;;;;;;21.00;20.50;;;;;;;;5234973;28;11478;-67